NZAANCRG

Guest
Details From NZAA - Auckland International
To NCRG - Rarotonga Intl
Flight Number -
Tags generated
Created
Modified
Stats Distance 1,628 nm / 3,015 km
Max Altitude 35,000 ft / 10,668 m
Waypoints 8
Social Downloads 0
Likes 0
Share VATSIM

Download

Looking for another format? Having issues loading an existing format? Contact us
Advertisement - Login to hide

Notes

Basic altitude profile: - Ascent Rate: 2500ft/min - Ascent Speed: 250kts - Cruise Altitude: 35000ft - Cruise Speed: 420kts - Descent Rate: 1500ft/min - Descent Speed: 250kts

Route

NZAA AA G594 RG NCRG

ID Type Via Altitude Latitude Longitude Leg Dist Tot Dist Heading (true) Name
O NZAA APT - 0 ft / 0 m -37.01079˚ 174.78733˚ - 0 nm - Auckland International
AA VOR - 400 ft / 122 m -37.00464˚ 174.81364˚ 1 nm 1 nm 74° / 74° AUCKLAND VOR-DME
AKLOM FIX G594 (AWY-HI) 35,000 ft / 10,668 m -35.35786˚ 178.39417˚ 199 nm 201 nm 61° / 59° -
MEXIP FIX G594 (AWY-HI) 35,000 ft / 10,668 m -31.83356˚ -175.00000˚ 392 nm 593 nm 59° / 56° -
NUPTO FIX G594 (AWY-HI) 35,000 ft / 10,668 m -28.72919˚ -170.00000˚ 319 nm 912 nm 56° / 53° -
OVTOS FIX G594 (AWY-HI) 35,000 ft / 10,668 m -25.23375˚ -165.00000˚ 340 nm 1252 nm 53° / 51° -
RG VOR G594 (AWY-HI) 23,500 ft / 7,163 m -21.20167˚ -159.81444˚ 374 nm 1627 nm 51° / 49° RAROTONGA VOR-DME
O NCRG APT - 0 ft / 0 m -21.20274˚ -159.80556˚ 0 nm 1628 nm 97° / 97° Rarotonga Intl

Altitude Profile

Advertisement - Login to hide

Weather


0- 5 10 15 20 25 30 35+ Temperature / ° C

Clouds and Precipitation
Forecast for 2017-09-21 18:00 UTC. Updated 42 minutes ago

Ground ~20,000 ft ~40,000 ft Winds

NZAA

Details ICAO NZAA (AKL)
Name Auckland International
Region New Zealand and Antarctica
Timezone Pacific/Auckland (UTC+12.0)
Stats Elevation 23 ft / 7 m (AMSL)
Location -37.010794° 174.787331°
Runways 2
Magnetic Variation 19.821° E

METAR

NZAA 211400Z AUTO 01004KT 9999 -RA SCT055/// BKN070/// 11/10 Q1006 TEMPO 6000 SHRA SCT020TCU

Decode

TAF

TAF NZAA 211118Z 2112/2212 02010KT 9999 -SHRA BKN025 TEMPO 2112/2201 5000 SHRA FEW020TCU BECMG 2117/2120 14008KT FM220100 20015KT 9999 -SHRA SCT020 TEMPO 2201/2206 7000 SHRA

Decode

Departure Runways

ID Width Length Bearing (true) Bearing (mag) Surface Threshold Offset Overrun Length
05L 157 ft / 48 m 10,844 ft / 3,305 m 70.91° 51.09° Concrete 1,240 ft / 378 m 460 ft / 140 m
05R 152 ft / 46 m 12,085 ft / 3,684 m 70.96° 51.14° Concrete 1,270 ft / 387 m 0 ft / 0 m
23L 152 ft / 46 m 12,085 ft / 3,684 m 250.94° 231.12° Concrete 0 ft / 0 m 0 ft / 0 m
23R 157 ft / 48 m 10,844 ft / 3,305 m 250.89° 231.07° Concrete 1,060 ft / 323 m 0 ft / 0 m

NCRG

Details ICAO NCRG (RAR)
Name Rarotonga Intl
Region Cook Islands
Timezone Pacific/Rarotonga (UTC-10.0)
Stats Elevation 19 ft / 6 m (AMSL)
Location -21.202739° -159.805555°
Runways 1
Magnetic Variation 13.929° E

METAR

NCRG 211400Z 20004KT 9999 SCT020 19/16 Q1013 RMK DEW ON GRASS

Decode

TAF

TAF NCRG 211107Z 2112/2212 18008KT 9999 SCT020 SCT050= TAF NFFN 211107Z 2112/2212 15006KT 9999 FEW025 SCT050 BECMG 2122/2124 27010KT BECMG 2204/2206 13007KT

Decode

Destination Runways

ID Width Length Bearing (true) Bearing (mag) Surface Threshold Offset Overrun Length
08 150 ft / 46 m 7,629 ft / 2,325 m 89.99° 76.06° Concrete 400 ft / 122 m 100 ft / 30 m
26 150 ft / 46 m 7,629 ft / 2,325 m 269.98° 256.05° Concrete 0 ft / 0 m 0 ft / 0 m

Approach Navaids

Runway Type Ident Frequency Range Bearing (true) Bearing (mag) Slope Elevation
08 Localiser INO 109.90 MHz 18 nm / 33 km 89.79° 75.86° - 19 ft / 6 m (AMSL)
08 Glidescope INO 109.90 MHz 10 nm / 19 km 89.98° 76.06° 3.00° 19 ft / 6 m (AMSL)
08 DME INO 109.90 MHz 18 nm / 33 km - - - 19 ft / 6 m (AMSL)
26 Localiser IAV 110.30 MHz 18 nm / 33 km 270.19° 256.26° - 19 ft / 6 m (AMSL)
26 Glidescope IAV 110.30 MHz 10 nm / 19 km 269.98° 256.06° 3.00° 19 ft / 6 m (AMSL)
26 DME IAV 110.30 MHz 18 nm / 33 km - - - 19 ft / 6 m (AMSL)

Popular Alternatives